Time;durP1;ratioP1;P1;durP2;ratioP2;P2;SDS_P1;SDS_P2;PMS_P1;PMS_P2;Temp;Humidity;BMP_temperature;BMP_pressure;BME280_temperature;BME280_humidity;BME280_pressure;Samples;Min_cycle;Max_cycle;Signal;HPM_P1;HPM_P2
2022/02/18 00:00:07;;;;;;;13.13;4.47;;;9.20;99.90;;;;;;5090505;28;20461;-67
2022/02/18 00:02:34;;;;;;;19.07;6.40;;;9.20;99.90;;;;;;5093889;28;20533;-67
2022/02/18 00:05:00;;;;;;;13.90;4.90;;;9.20;99.90;;;;;;5093532;28;20446;-67
2022/02/18 00:07:27;;;;;;;15.33;4.50;;;9.10;99.90;;;;;;5093004;28;20444;-67
2022/02/18 00:09:54;;;;;;;14.37;4.20;;;9.00;99.90;;;;;;5093089;28;20518;-68
2022/02/18 00:12:23;;;;;;;19.83;4.50;;;8.90;99.90;;;;;;5093546;28;20533;-67
2022/02/18 00:14:49;;;;;;;15.17;4.13;;;8.80;99.90;;;;;;5093703;28;20446;-67
2022/02/18 00:17:16;;;;;;;12.87;6.20;;;8.60;99.90;;;;;;5093003;28;20450;-68
2022/02/18 00:19:43;;;;;;;19.20;5.03;;;8.50;99.90;;;;;;5093130;28;20491;-67
2022/02/18 00:22:10;;;;;;;12.67;4.20;;;8.50;99.90;;;;;;5092942;28;20564;-67
2022/02/18 00:24:37;;;;;;;21.30;4.30;;;8.60;99.90;;;;;;5093049;28;20537;-67
2022/02/18 00:27:04;;;;;;;12.70;4.27;;;8.60;99.90;;;;;;5092720;28;20445;-67
2022/02/18 00:29:32;;;;;;;14.20;4.67;;;8.60;99.90;;;;;;5092924;28;20485;-67
2022/02/18 00:31:59;;;;;;;18.67;4.40;;;8.60;99.90;;;;;;5093112;28;20446;-67
2022/02/18 00:34:26;;;;;;;11.43;3.73;;;8.60;99.90;;;;;;5093206;28;20533;-67
2022/02/18 00:36:53;;;;;;;18.20;4.00;;;8.70;99.90;;;;;;5093173;28;20450;-67
2022/02/18 00:39:19;;;;;;;12.93;4.23;;;8.70;99.90;;;;;;5092643;28;20462;-67
2022/02/18 00:41:47;;;;;;;13.83;5.97;;;8.70;99.90;;;;;;5093165;28;20545;-67
2022/02/18 00:44:14;;;;;;;17.83;5.30;;;8.80;99.90;;;;;;5093300;28;20568;-67
2022/02/18 00:46:43;;;;;;;17.33;4.30;;;8.80;99.90;;;;;;5093105;28;20454;-68
2022/02/18 00:49:09;;;;;;;19.60;5.30;;;8.80;99.90;;;;;;5092463;28;20568;-68
2022/02/18 00:51:36;;;;;;;16.67;4.23;;;8.90;99.90;;;;;;5093612;28;20932;-68
2022/02/18 00:54:03;;;;;;;11.23;4.53;;;8.90;99.90;;;;;;5094480;28;20561;-68
2022/02/18 00:56:30;;;;;;;16.83;5.30;;;9.00;99.90;;;;;;5097976;28;20534;-68
2022/02/18 00:59:00;;;;;;;17.90;4.70;;;9.10;99.90;;;;;;5098825;28;20458;-68
2022/02/18 01:01:26;;;;;;;12.43;4.50;;;9.20;99.90;;;;;;5097239;28;20453;-68
2022/02/18 01:03:55;;;;;;;13.00;4.50;;;9.20;99.90;;;;;;5094892;28;20452;-67
2022/02/18 01:06:22;;;;;;;13.20;5.10;;;9.30;99.90;;;;;;5092546;28;20450;-67
2022/02/18 01:08:48;;;;;;;13.33;3.67;;;9.30;99.90;;;;;;5092148;28;21003;-68
2022/02/18 01:11:15;;;;;;;16.80;5.47;;;9.30;99.90;;;;;;5092174;28;20452;-68
2022/02/18 01:13:42;;;;;;;14.93;4.43;;;9.30;99.90;;;;;;5092261;28;20449;-68
2022/02/18 01:16:09;;;;;;;17.20;4.07;;;9.30;99.90;;;;;;5092347;28;20485;-68
2022/02/18 01:18:36;;;;;;;22.40;5.33;;;9.30;99.90;;;;;;5091779;28;20469;-67
2022/02/18 01:21:04;;;;;;;14.00;4.77;;;9.30;99.90;;;;;;5092302;28;20451;-68
2022/02/18 01:23:31;;;;;;;11.60;4.13;;;9.30;99.90;;;;;;5094224;28;20466;-68
2022/02/18 01:25:58;;;;;;;13.67;4.53;;;9.30;99.90;;;;;;5094822;28;20903;-68
2022/02/18 01:28:25;;;;;;;13.77;4.17;;;9.30;99.90;;;;;;5094955;28;20696;-68
2022/02/18 01:30:52;;;;;;;19.07;5.43;;;9.30;99.90;;;;;;5097115;28;21098;-68
2022/02/18 01:33:18;;;;;;;18.63;4.63;;;9.30;99.90;;;;;;5096650;28;20448;-68
2022/02/18 01:35:45;;;;;;;9.60;3.40;;;9.30;99.90;;;;;;5095214;28;20822;-67
2022/02/18 01:38:14;;;;;;;14.53;4.00;;;9.40;99.90;;;;;;5093239;28;20442;-67
2022/02/18 01:40:40;;;;;;;11.73;4.20;;;9.40;99.90;;;;;;5092503;28;20466;-68
2022/02/18 01:43:07;;;;;;;15.13;3.70;;;9.40;99.90;;;;;;5092041;28;20474;-68
2022/02/18 01:45:34;;;;;;;14.90;4.60;;;9.40;99.90;;;;;;5091955;28;20825;-68
2022/02/18 01:48:01;;;;;;;10.73;4.13;;;9.40;99.90;;;;;;5091102;28;20528;-68
2022/02/18 01:50:28;;;;;;;10.37;4.17;;;9.40;99.90;;;;;;5091644;28;20482;-68
2022/02/18 01:52:56;;;;;;;15.53;6.30;;;9.30;99.90;;;;;;5091192;28;20995;-67
2022/02/18 01:55:25;;;;;;;15.23;4.27;;;9.30;99.90;;;;;;5091581;28;20882;-68
2022/02/18 01:57:54;;;;;;;14.17;5.07;;;9.30;99.90;;;;;;5086760;28;21015;-68
2022/02/18 02:00:30;;;;;;;13.60;3.70;;;9.40;99.90;;;;;;5090842;28;20458;-68
2022/02/18 02:02:57;;;;;;;13.17;5.50;;;9.40;99.90;;;;;;5091229;28;20513;-69
2022/02/18 02:05:24;;;;;;;13.60;4.40;;;9.40;99.90;;;;;;5091124;28;20446;-68
2022/02/18 02:07:52;;;;;;;16.00;4.40;;;9.40;99.90;;;;;;5090772;28;20533;-68
2022/02/18 02:10:19;;;;;;;11.43;4.17;;;9.40;99.90;;;;;;5090786;28;20526;-67
2022/02/18 02:12:50;;;;;;;21.97;4.90;;;9.40;99.90;;;;;;5090855;28;20454;-67
2022/02/18 02:15:18;;;;;;;11.60;3.83;;;9.30;99.90;;;;;;5090797;28;20442;-68
2022/02/18 02:17:45;;;;;;;11.73;4.10;;;9.30;99.90;;;;;;5090690;28;20450;-68
2022/02/18 02:20:13;;;;;;;12.70;3.87;;;9.30;99.90;;;;;;5090486;28;20497;-68
2022/02/18 02:22:42;;;;;;;21.50;4.07;;;9.20;99.90;;;;;;5090693;28;20468;-68
2022/02/18 02:25:09;;;;;;;10.53;3.87;;;9.20;99.90;;;;;;5089543;28;20532;-69
2022/02/18 02:27:36;;;;;;;18.17;4.37;;;9.30;99.90;;;;;;5090130;28;20456;-68
2022/02/18 02:30:04;;;;;;;9.83;3.90;;;9.30;99.90;;;;;;5090374;28;20858;-68
2022/02/18 02:32:31;;;;;;;14.47;4.60;;;9.20;99.90;;;;;;5090681;28;20825;-67
2022/02/18 02:34:58;;;;;;;13.30;4.60;;;9.10;99.90;;;;;;5090397;28;20445;-68
2022/02/18 02:37:25;;;;;;;16.50;3.93;;;9.10;99.90;;;;;;5090104;28;20446;-68
2022/02/18 02:39:53;;;;;;;10.93;3.43;;;9.10;99.90;;;;;;5090161;28;20855;-68
2022/02/18 02:42:20;;;;;;;10.90;4.40;;;9.00;99.90;;;;;;5090337;28;20452;-68
2022/02/18 02:44:48;;;;;;;12.40;3.80;;;8.80;99.90;;;;;;5090351;28;20444;-69
2022/02/18 02:47:15;;;;;;;13.17;3.90;;;8.80;99.90;;;;;;5090002;28;21192;-68
2022/02/18 02:49:42;;;;;;;14.73;3.87;;;8.80;99.90;;;;;;5088907;28;21116;-68
2022/02/18 02:52:09;;;;;;;12.00;4.30;;;8.70;99.90;;;;;;5082995;28;20453;-68
2022/02/18 02:54:36;;;;;;;14.57;4.40;;;8.70;99.90;;;;;;5090200;28;20458;-68
2022/02/18 02:57:05;;;;;;;8.20;3.70;;;8.70;99.90;;;;;;5090191;28;20446;-68
2022/02/18 02:59:32;;;;;;;12.37;3.80;;;8.70;99.90;;;;;;5090527;28;20476;-68
2022/02/18 03:01:59;;;;;;;10.67;3.97;;;8.70;99.90;;;;;;5090096;28;20910;-68
2022/02/18 03:04:26;;;;;;;12.80;3.40;;;8.80;99.90;;;;;;5090450;28;20449;-68
2022/02/18 03:06:52;;;;;;;9.90;4.03;;;8.80;99.90;;;;;;5090170;28;20533;-68
2022/02/18 03:09:19;;;;;;;11.30;3.60;;;8.80;99.90;;;;;;5090067;28;20466;-68
2022/02/18 03:11:46;;;;;;;11.60;3.90;;;8.90;99.90;;;;;;5090679;28;20446;-68
2022/02/18 03:14:14;;;;;;;14.43;3.67;;;8.90;99.90;;;;;;5090494;28;20508;-67
2022/02/18 03:16:41;;;;;;;19.40;4.23;;;8.80;99.90;;;;;;5090273;28;20456;-69
2022/02/18 03:19:08;;;;;;;11.53;3.40;;;8.80;99.90;;;;;;5089752;28;20542;-68
2022/02/18 03:21:35;;;;;;;14.10;4.40;;;8.70;99.90;;;;;;5090115;28;20448;-68
2022/02/18 03:24:01;;;;;;;12.60;4.10;;;8.60;99.90;;;;;;5090223;28;20442;-68
2022/02/18 03:26:28;;;;;;;12.40;4.27;;;8.60;99.90;;;;;;5090133;28;20460;-68
2022/02/18 03:28:55;;;;;;;15.80;3.63;;;8.60;99.90;;;;;;5089980;28;20473;-68
2022/02/18 03:31:23;;;;;;;11.40;3.50;;;8.50;99.90;;;;;;5089940;28;20482;-68
2022/02/18 03:33:50;;;;;;;13.60;3.80;;;8.30;99.90;;;;;;5089842;28;20480;-68
2022/02/18 03:36:17;;;;;;;13.00;3.60;;;8.20;99.90;;;;;;5092989;28;20457;-68
2022/02/18 03:38:44;;;;;;;11.17;4.00;;;8.10;99.90;;;;;;5093893;28;20446;-67
2022/02/18 03:41:11;;;;;;;9.13;4.27;;;8.20;99.90;;;;;;5094090;28;20450;-68
2022/02/18 03:43:37;;;;;;;10.97;4.63;;;8.10;99.90;;;;;;5094138;28;20553;-68
2022/02/18 03:46:04;;;;;;;12.63;3.83;;;8.10;99.90;;;;;;5093622;28;20441;-67
2022/02/18 03:48:33;;;;;;;12.50;4.00;;;8.10;99.90;;;;;;5093312;28;20446;-68
2022/02/18 03:51:00;;;;;;;13.07;3.27;;;8.10;99.90;;;;;;5093845;28;20835;-68
2022/02/18 03:53:27;;;;;;;13.40;3.20;;;8.00;99.90;;;;;;5093735;28;20889;-67
2022/02/18 03:55:54;;;;;;;16.50;4.53;;;8.10;99.90;;;;;;5091996;28;20446;-68
2022/02/18 03:58:21;;;;;;;10.90;4.43;;;8.00;99.90;;;;;;5091780;28;20865;-66
2022/02/18 04:00:48;;;;;;;12.10;4.17;;;8.00;99.90;;;;;;5093190;28;20536;-67
2022/02/18 04:03:15;;;;;;;11.53;3.80;;;8.00;99.90;;;;;;5093472;28;20544;-67
2022/02/18 04:05:44;;;;;;;10.97;3.70;;;7.90;99.90;;;;;;5093628;28;20525;-67
2022/02/18 04:08:11;;;;;;;9.30;3.30;;;7.90;99.90;;;;;;5093377;28;20453;-67
2022/02/18 04:10:38;;;;;;;12.60;3.40;;;7.80;99.90;;;;;;5093446;28;20481;-67
2022/02/18 04:13:05;;;;;;;9.50;3.40;;;7.80;99.90;;;;;;5093644;28;20884;-67
2022/02/18 04:15:35;;;;;;;16.43;4.40;;;7.70;99.90;;;;;;5093385;28;20450;-67
2022/02/18 04:18:01;;;;;;;12.70;4.00;;;7.70;99.90;;;;;;5092969;28;20797;-67
2022/02/18 04:20:29;;;;;;;11.43;4.00;;;7.80;99.90;;;;;;5093115;28;20470;-67
2022/02/18 04:22:57;;;;;;;12.30;3.33;;;7.80;99.90;;;;;;5093114;28;20537;-67
2022/02/18 04:25:24;;;;;;;13.23;2.73;;;7.80;99.90;;;;;;5087624;28;20452;-67
2022/02/18 04:27:55;;;;;;;9.70;3.50;;;7.80;99.90;;;;;;5092532;28;20457;-68
2022/02/18 04:30:22;;;;;;;10.43;4.30;;;7.80;99.90;;;;;;5092713;28;20481;-69
2022/02/18 04:32:50;;;;;;;10.37;3.93;;;7.80;99.90;;;;;;5092832;28;20962;-67
2022/02/18 04:35:18;;;;;;;13.40;3.87;;;7.70;99.90;;;;;;5092688;28;20476;-67
2022/02/18 04:37:45;;;;;;;14.00;4.40;;;7.70;99.90;;;;;;5092422;28;20526;-67
2022/02/18 04:40:15;;;;;;;8.47;3.30;;;7.60;99.90;;;;;;5092733;28;21026;-68
2022/02/18 04:42:42;;;;;;;13.17;3.70;;;7.70;99.90;;;;;;5092404;28;20442;-68
2022/02/18 04:45:10;;;;;;;11.00;3.83;;;7.70;99.90;;;;;;5092318;28;20494;-67
2022/02/18 04:47:37;;;;;;;22.97;4.50;;;7.80;99.90;;;;;;5091290;28;20476;-68
2022/02/18 04:50:05;;;;;;;10.80;3.53;;;7.90;99.90;;;;;;5092055;28;20545;-67
2022/02/18 04:52:33;;;;;;;9.23;4.50;;;7.90;99.90;;;;;;5092697;28;20446;-67
2022/02/18 04:55:00;;;;;;;14.70;3.57;;;8.00;99.90;;;;;;5092357;28;20462;-67
2022/02/18 04:57:29;;;;;;;18.30;3.50;;;8.00;99.90;;;;;;5092140;28;20485;-67
2022/02/18 04:59:56;;;;;;;14.93;4.60;;;8.10;99.90;;;;;;5092696;28;20488;-67
2022/02/18 05:02:23;;;;;;;12.00;3.50;;;8.20;99.90;;;;;;5092875;28;20464;-68
2022/02/18 05:04:50;;;;;;;12.50;3.30;;;8.20;99.90;;;;;;5092422;28;20551;-68
2022/02/18 05:07:17;;;;;;;13.90;4.43;;;8.30;99.90;;;;;;5092391;28;20434;-68
2022/02/18 05:09:45;;;;;;;15.43;3.70;;;8.40;99.90;;;;;;5091771;28;20993;-66
2022/02/18 05:12:12;;;;;;;10.30;3.00;;;8.40;99.90;;;;;;5092647;28;20474;-67
2022/02/18 05:14:40;;;;;;;9.33;3.80;;;8.50;99.90;;;;;;5092446;28;20450;-68
2022/02/18 05:17:07;;;;;;;9.50;3.60;;;8.60;99.90;;;;;;5092306;28;21038;-68
2022/02/18 05:19:34;;;;;;;13.20;3.90;;;8.70;99.90;;;;;;5092335;28;20995;-68
2022/02/18 05:22:01;;;;;;;6.63;2.80;;;8.70;99.90;;;;;;5092233;28;20450;-68
2022/02/18 05:24:28;;;;;;;8.37;4.53;;;8.80;99.90;;;;;;5092485;28;20457;-68
2022/02/18 05:26:55;;;;;;;13.30;4.80;;;8.80;99.90;;;;;;5092324;28;20446;-68
2022/02/18 05:29:21;;;;;;;9.90;3.43;;;8.80;99.90;;;;;;5092125;28;20485;-69
2022/02/18 05:31:50;;;;;;;10.40;3.30;;;8.90;99.90;;;;;;5091815;28;20478;-66
2022/02/18 05:34:16;;;;;;;9.73;3.43;;;8.90;99.90;;;;;;5091869;28;20457;-68
2022/02/18 05:36:43;;;;;;;10.50;3.97;;;8.90;99.90;;;;;;5091794;28;20526;-67
2022/02/18 05:39:10;;;;;;;14.03;4.07;;;9.00;99.90;;;;;;5091483;28;20545;-68
2022/02/18 05:41:37;;;;;;;12.13;4.10;;;9.00;99.90;;;;;;5091264;28;21172;-67
2022/02/18 05:44:04;;;;;;;14.00;3.93;;;9.00;99.90;;;;;;5091996;28;20465;-69
2022/02/18 05:46:31;;;;;;;14.57;3.40;;;9.10;99.90;;;;;;5091806;28;20457;-67
2022/02/18 05:48:59;;;;;;;10.70;3.70;;;9.10;99.90;;;;;;5091427;28;20557;-69
2022/02/18 05:51:26;;;;;;;12.23;3.80;;;9.10;99.90;;;;;;5091680;28;20577;-68
2022/02/18 05:53:53;;;;;;;12.97;3.90;;;9.20;99.90;;;;;;5091198;28;20536;-68
2022/02/18 05:56:20;;;;;;;10.90;3.67;;;9.20;99.90;;;;;;5082808;28;20533;-67
2022/02/18 05:58:47;;;;;;;16.93;4.40;;;9.20;99.90;;;;;;5088973;28;20468;-68
2022/02/18 06:01:14;;;;;;;11.30;5.43;;;9.20;99.90;;;;;;5091777;28;20444;-68
2022/02/18 06:03:41;;;;;;;15.00;4.30;;;9.30;99.90;;;;;;5085794;28;20534;-68
2022/02/18 06:06:10;;;;;;;14.70;5.23;;;9.30;99.90;;;;;;5084117;28;20446;-68
2022/02/18 06:08:37;;;;;;;13.77;4.23;;;9.30;99.90;;;;;;5090956;28;20439;-69
2022/02/18 06:11:04;;;;;;;9.57;3.43;;;9.40;99.90;;;;;;5087116;28;20474;-68
2022/02/18 06:13:30;;;;;;;19.90;5.10;;;9.40;99.90;;;;;;5083044;28;20544;-70
2022/02/18 06:15:57;;;;;;;15.70;4.90;;;9.40;99.90;;;;;;5083005;28;20440;-69
2022/02/18 06:18:25;;;;;;;10.20;3.77;;;9.40;99.90;;;;;;5089584;28;20839;-69
2022/02/18 06:20:52;;;;;;;8.33;3.40;;;9.50;99.90;;;;;;5084700;28;20567;-69
2022/02/18 06:23:20;;;;;;;14.17;4.80;;;9.50;99.90;;;;;;5088233;28;20442;-68
2022/02/18 06:25:47;;;;;;;17.70;4.03;;;9.50;99.90;;;;;;5088694;28;20469;-68
2022/02/18 06:28:15;;;;;;;8.10;3.10;;;9.60;99.90;;;;;;5087765;28;21166;-68
2022/02/18 06:30:42;;;;;;;10.43;4.37;;;9.50;99.90;;;;;;5089045;28;20502;-68
2022/02/18 06:33:09;;;;;;;10.63;4.50;;;9.50;99.90;;;;;;5089397;28;20435;-68
2022/02/18 06:35:39;;;;;;;12.10;3.80;;;9.50;99.90;;;;;;5090597;28;20478;-68
2022/02/18 06:38:06;;;;;;;10.93;3.80;;;9.50;99.90;;;;;;5089701;28;20836;-68
2022/02/18 06:40:35;;;;;;;10.80;3.83;;;9.60;99.90;;;;;;5090048;28;20520;-69
2022/02/18 06:43:02;;;;;;;14.17;4.03;;;9.60;99.90;;;;;;5089391;28;20445;-71
2022/02/18 06:45:28;;;;;;;13.93;3.87;;;9.60;99.90;;;;;;5090336;28;20446;-68
2022/02/18 06:47:55;;;;;;;15.73;3.83;;;9.60;99.90;;;;;;5089957;28;20492;-69
2022/02/18 06:50:22;;;;;;;14.80;3.90;;;9.60;99.90;;;;;;5089846;28;21072;-68
2022/02/18 06:52:49;;;;;;;12.07;3.57;;;9.70;99.90;;;;;;5089978;28;21101;-69
2022/02/18 06:55:17;;;;;;;10.73;3.50;;;9.70;99.90;;;;;;5090407;28;20456;-69
2022/02/18 06:57:46;;;;;;;11.20;3.90;;;9.80;99.90;;;;;;5089827;28;20452;-69
2022/02/18 07:00:15;;;;;;;11.47;3.73;;;9.80;99.90;;;;;;5089961;28;20466;-69
2022/02/18 07:02:43;;;;;;;9.53;4.33;;;9.80;99.90;;;;;;5090350;28;20448;-68
2022/02/18 07:05:11;;;;;;;8.70;3.23;;;9.80;99.90;;;;;;5090141;28;20449;-70
2022/02/18 07:07:38;;;;;;;16.40;3.90;;;9.80;99.90;;;;;;5089814;28;20541;-69
2022/02/18 07:10:07;;;;;;;11.27;3.43;;;9.80;99.90;;;;;;5089611;28;20965;-69
2022/02/18 07:12:34;;;;;;;11.40;4.30;;;9.90;99.90;;;;;;5090151;28;20500;-70
2022/02/18 07:15:03;;;;;;;10.77;3.90;;;9.90;99.90;;;;;;5090092;28;20998;-69
2022/02/18 07:17:31;;;;;;;9.43;4.30;;;9.90;99.90;;;;;;5090113;28;20541;-69
2022/02/18 07:19:58;;;;;;;10.43;3.50;;;10.00;99.90;;;;;;5090343;28;20469;-67
2022/02/18 07:22:25;;;;;;;7.07;3.70;;;10.10;99.90;;;;;;5093031;28;20533;-67
2022/02/18 07:24:53;;;;;;;14.77;4.60;;;10.10;99.90;;;;;;5093097;28;20452;-65
2022/02/18 07:27:20;;;;;;;15.60;4.23;;;10.20;99.90;;;;;;5092942;28;20452;-67
2022/02/18 07:29:48;;;;;;;18.67;5.67;;;10.30;99.90;;;;;;5093359;28;20465;-67
2022/02/18 07:32:16;;;;;;;11.90;3.80;;;10.30;99.90;;;;;;5092114;28;20488;-67
2022/02/18 07:34:43;;;;;;;14.70;4.80;;;10.30;99.90;;;;;;5090085;28;20506;-66
2022/02/18 07:37:10;;;;;;;13.40;4.40;;;10.30;99.90;;;;;;5089811;28;20438;-66
2022/02/18 07:39:38;;;;;;;11.37;4.10;;;10.40;99.90;;;;;;5089774;28;20552;-66
2022/02/18 07:42:05;;;;;;;10.03;3.50;;;10.40;99.90;;;;;;5089521;28;20451;-66
2022/02/18 07:44:32;;;;;;;13.93;4.57;;;10.40;99.90;;;;;;5090144;28;20446;-64
2022/02/18 07:46:59;;;;;;;11.87;3.90;;;10.40;99.90;;;;;;5085420;28;20457;-66
2022/02/18 07:49:27;;;;;;;11.97;4.27;;;10.40;99.90;;;;;;5086641;28;20470;-65
2022/02/18 07:51:54;;;;;;;18.47;5.10;;;10.30;99.90;;;;;;5088546;28;20469;-66
2022/02/18 07:54:21;;;;;;;13.40;5.00;;;10.30;99.90;;;;;;5088167;28;20955;-66
2022/02/18 07:56:48;;;;;;;12.60;4.50;;;10.30;99.90;;;;;;5088556;28;20908;-66
2022/02/18 07:59:15;;;;;;;11.90;5.13;;;10.30;99.90;;;;;;5088513;28;21039;-66
2022/02/18 08:01:42;;;;;;;13.77;4.77;;;10.30;99.90;;;;;;5088849;28;20442;-65
2022/02/18 08:04:08;;;;;;;14.07;4.20;;;10.40;99.90;;;;;;5088434;28;20450;-65
2022/02/18 08:06:37;;;;;;;10.73;4.43;;;10.40;99.90;;;;;;5088656;28;20465;-66
2022/02/18 08:09:04;;;;;;;11.90;4.40;;;10.50;99.90;;;;;;5088166;28;20466;-65
2022/02/18 08:11:31;;;;;;;13.67;4.27;;;10.60;99.90;;;;;;5088746;28;20489;-65
2022/02/18 08:13:59;;;;;;;10.33;3.80;;;10.80;99.90;;;;;;5088546;28;20450;-65
2022/02/18 08:16:27;;;;;;;9.47;3.77;;;10.90;99.90;;;;;;5088573;28;20512;-67
2022/02/18 08:18:54;;;;;;;14.67;3.80;;;11.00;99.90;;;;;;5088577;28;20829;-65
2022/02/18 08:21:21;;;;;;;13.00;3.40;;;11.10;99.90;;;;;;5091687;28;20978;-64
2022/02/18 08:23:52;;;;;;;9.27;2.90;;;11.20;99.90;;;;;;5094690;28;20457;-64
2022/02/18 08:26:19;;;;;;;10.23;3.07;;;11.20;99.90;;;;;;5095281;28;21090;-63
2022/02/18 08:28:46;;;;;;;11.87;2.60;;;11.20;99.90;;;;;;5094482;28;20442;-64
2022/02/18 08:31:13;;;;;;;10.57;2.40;;;11.30;99.90;;;;;;5094261;28;20940;-65
2022/02/18 08:33:41;;;;;;;7.80;2.80;;;11.30;99.90;;;;;;5094785;28;20446;-65
2022/02/18 08:36:08;;;;;;;7.73;2.67;;;11.40;99.90;;;;;;5094694;28;20549;-64
2022/02/18 08:38:35;;;;;;;11.67;2.70;;;11.40;99.90;;;;;;5095249;28;20442;-64
2022/02/18 08:41:04;;;;;;;7.07;2.20;;;11.50;99.90;;;;;;5095554;28;20524;-63
2022/02/18 08:43:31;;;;;;;8.83;2.40;;;11.50;99.90;;;;;;5095219;28;20536;-63
2022/02/18 08:45:58;;;;;;;10.50;2.37;;;11.60;99.90;;;;;;5094234;28;20526;-64
2022/02/18 08:48:25;;;;;;;8.23;3.30;;;11.70;99.90;;;;;;5094325;28;20540;-64
2022/02/18 08:50:53;;;;;;;7.40;2.03;;;11.80;99.90;;;;;;5094663;28;20473;-65
2022/02/18 08:53:20;;;;;;;6.20;1.90;;;11.90;99.90;;;;;;5094513;28;20486;-64
2022/02/18 08:55:47;;;;;;;8.33;2.97;;;12.00;99.90;;;;;;5095490;28;20530;-64
2022/02/18 08:58:15;;;;;;;5.97;1.80;;;12.10;99.90;;;;;;5095367;28;20442;-64
2022/02/18 09:00:42;;;;;;;7.57;2.47;;;12.20;99.90;;;;;;5095077;28;20987;-64
2022/02/18 09:03:11;;;;;;;5.07;2.07;;;12.30;99.90;;;;;;5094828;28;20438;-65
2022/02/18 09:05:38;;;;;;;4.23;2.30;;;12.50;99.90;;;;;;5095354;28;20442;-64
2022/02/18 09:08:05;;;;;;;5.40;2.80;;;12.60;99.90;;;;;;5094908;28;20533;-63
2022/02/18 09:10:32;;;;;;;5.33;2.20;;;12.80;99.90;;;;;;5095429;28;20478;-64
2022/02/18 09:12:58;;;;;;;5.97;1.97;;;12.90;99.90;;;;;;5095337;28;20482;-63
2022/02/18 09:15:27;;;;;;;3.23;1.83;;;13.10;99.90;;;;;;5094111;28;20894;-63
2022/02/18 09:17:53;;;;;;;3.93;1.30;;;13.10;99.90;;;;;;5093814;28;20447;-63
2022/02/18 09:20:21;;;;;;;6.80;1.93;;;13.10;99.90;;;;;;5094754;28;20493;-65
2022/02/18 09:22:47;;;;;;;4.53;1.70;;;13.10;99.90;;;;;;5094636;28;20852;-64
2022/02/18 09:25:14;;;;;;;5.97;1.87;;;13.10;99.90;;;;;;5094185;28;20450;-63
2022/02/18 09:27:41;;;;;;;4.33;1.70;;;13.10;99.90;;;;;;5093635;28;20454;-64
2022/02/18 09:30:10;;;;;;;3.63;1.57;;;13.10;99.90;;;;;;5093798;28;20462;-64
2022/02/18 09:32:39;;;;;;;8.17;1.90;;;13.20;99.90;;;;;;5093285;28;20890;-63
2022/02/18 09:35:06;;;;;;;6.20;1.40;;;13.30;99.90;;;;;;5094326;28;20464;-65
2022/02/18 09:37:33;;;;;;;3.43;1.00;;;13.50;99.90;;;;;;5093300;28;20446;-63
2022/02/18 09:40:00;;;;;;;4.00;1.47;;;13.60;99.90;;;;;;5093650;28;20462;-63
2022/02/18 09:42:28;;;;;;;4.07;1.60;;;13.70;99.90;;;;;;5093039;28;20442;-63
2022/02/18 09:44:56;;;;;;;4.10;1.13;;;13.90;99.90;;;;;;5093522;28;20446;-63
2022/02/18 09:47:23;;;;;;;3.27;1.30;;;14.00;99.90;;;;;;5093077;28;20503;-63
2022/02/18 09:49:53;;;;;;;2.97;1.10;;;14.20;99.90;;;;;;5093753;28;20532;-63
2022/02/18 09:52:21;;;;;;;3.93;1.20;;;14.30;99.90;;;;;;5093411;28;20493;-63
2022/02/18 09:54:48;;;;;;;5.00;1.40;;;14.40;99.90;;;;;;5093137;28;20476;-64
2022/02/18 09:57:16;;;;;;;3.93;2.53;;;14.50;99.90;;;;;;5093042;28;20452;-63
2022/02/18 09:59:45;;;;;;;4.47;1.63;;;14.70;99.90;;;;;;5093917;28;20469;-63
2022/02/18 10:02:13;;;;;;;10.17;1.60;;;14.80;99.90;;;;;;5093559;28;20445;-63
2022/02/18 10:04:39;;;;;;;3.00;1.20;;;14.80;99.90;;;;;;5093507;28;20441;-65
2022/02/18 10:07:08;;;;;;;2.87;1.20;;;14.90;99.90;;;;;;5093810;28;20501;-63
2022/02/18 10:09:39;;;;;;;4.17;3.00;;;15.00;99.90;;;;;;5093901;28;20481;-63
2022/02/18 10:12:06;;;;;;;4.23;1.30;;;15.10;99.90;;;;;;5093908;28;20482;-63
2022/02/18 10:14:53;;;;;;;3.40;1.57;;;15.30;99.90;;;;;;5093149;28;20445;-63
2022/02/18 10:17:21;;;;;;;3.53;1.10;;;15.40;99.90;;;;;;5092662;28;20446;-63
2022/02/18 10:19:51;;;;;;;3.70;1.20;;;15.40;99.90;;;;;;5093545;28;20476;-63
2022/02/18 10:22:25;;;;;;;4.33;1.40;;;15.50;99.90;;;;;;5092753;28;20533;-63
2022/02/18 10:24:53;;;;;;;3.60;1.50;;;15.70;99.90;;;;;;5093619;28;20966;-63
2022/02/18 10:27:22;;;;;;;3.93;1.23;;;16.00;99.90;;;;;;5092658;28;20446;-63
2022/02/18 10:30:00;;;;;;;4.30;1.63;;;16.10;99.90;;;;;;5093331;28;20862;-63
2022/02/18 10:32:27;;;;;;;4.60;1.60;;;16.20;99.90;;;;;;5093034;28;20481;-63
2022/02/18 10:34:55;;;;;;;3.57;1.10;;;16.40;99.90;;;;;;5092971;28;20450;-63
2022/02/18 10:37:25;;;;;;;2.40;1.40;;;16.40;99.90;;;;;;5093432;28;20442;-63
2022/02/18 10:40:05;;;;;;;3.80;1.27;;;16.40;99.90;;;;;;5093347;28;20473;-63
2022/02/18 10:42:32;;;;;;;5.20;1.60;;;16.60;99.90;;;;;;5093356;28;20958;-63
2022/02/18 10:45:11;;;;;;;3.20;1.10;;;16.70;99.90;;;;;;5091673;28;20463;-64
2022/02/18 10:47:39;;;;;;;3.33;1.47;;;16.90;99.90;;;;;;5092013;28;20465;-63
2022/02/18 10:50:16;;;;;;;4.73;1.63;;;17.00;99.90;;;;;;5091448;28;21046;-64
2022/02/18 10:53:08;;;;;;;3.80;1.20;;;16.90;99.90;;;;;;5092545;28;20509;-63
2022/02/18 10:55:48;;;;;;;7.00;1.50;;;16.70;99.90;;;;;;5093036;28;20981;-63
2022/02/18 10:58:20;;;;;;;5.60;1.47;;;16.80;99.90;;;;;;5092657;28;20438;-64
2022/02/18 11:00:47;;;;;;;5.60;1.10;;;16.80;99.90;;;;;;5093083;28;20549;-63
2022/02/18 11:03:25;;;;;;;4.53;1.37;;;16.80;99.90;;;;;;5092024;28;20450;-63
2022/02/18 11:05:52;;;;;;;3.67;1.10;;;16.80;99.90;;;;;;5092708;28;20453;-64
2022/02/18 11:08:29;;;;;;;3.70;1.20;;;16.90;99.90;;;;;;5092480;28;20444;-64
2022/02/18 11:10:57;;;;;;;3.00;1.47;;;17.40;99.90;;;;;;5092901;28;20998;-63
2022/02/18 11:13:24;;;;;;;5.47;1.20;;;17.70;99.90;;;;;;5092512;28;20490;-63
2022/02/18 11:15:51;;;;;;;3.40;1.10;;;18.00;99.90;;;;;;5092668;28;20500;-65
2022/02/18 11:18:19;;;;;;;3.37;1.70;;;18.30;99.90;;;;;;5092766;28;20453;-65
2022/02/18 11:20:46;;;;;;;3.37;1.10;;;18.40;99.90;;;;;;5093152;28;20991;-64
2022/02/18 11:23:14;;;;;;;4.57;1.13;;;18.20;99.90;;;;;;5093172;28;20825;-64
2022/02/18 11:25:43;;;;;;;4.90;1.30;;;18.00;99.90;;;;;;5092674;28;20446;-64
2022/02/18 11:28:10;;;;;;;5.40;1.50;;;17.80;99.90;;;;;;5092144;28;20453;-64
2022/02/18 11:30:39;;;;;;;4.17;1.87;;;17.70;99.90;;;;;;5091448;28;20472;-63
2022/02/18 11:33:17;;;;;;;3.77;1.23;;;17.50;99.90;;;;;;5091439;28;20990;-64
2022/02/18 11:36:03;;;;;;;2.50;0.93;;;17.20;99.90;;;;;;5091425;28;20445;-64
2022/02/18 11:38:52;;;;;;;3.00;1.03;;;16.90;99.90;;;;;;5091616;28;20452;-64
2022/02/18 11:41:37;;;;;;;6.17;1.10;;;16.70;99.90;;;;;;5091788;28;20435;-64
2022/02/18 11:44:04;;;;;;;5.00;1.20;;;16.50;99.90;;;;;;5092723;28;20442;-64
2022/02/18 11:46:31;;;;;;;3.83;1.27;;;16.60;99.90;;;;;;5092284;28;20450;-64
2022/02/18 11:48:59;;;;;;;3.90;0.97;;;16.70;99.90;;;;;;5091276;28;20477;-64
2022/02/18 11:51:27;;;;;;;4.10;0.80;;;17.20;99.90;;;;;;5091436;28;20450;-64
2022/02/18 11:53:57;;;;;;;5.97;1.30;;;17.50;99.90;;;;;;5092190;28;20474;-64
2022/02/18 11:56:42;;;;;;;4.70;0.70;;;17.70;99.90;;;;;;5094165;28;20445;-63
2022/02/18 11:59:10;;;;;;;3.60;1.03;;;17.70;99.90;;;;;;5095708;28;20909;-64
2022/02/18 12:02:07;;;;;;;3.40;1.07;;;17.50;99.90;;;;;;5096150;28;20533;-64
2022/02/18 12:04:34;;;;;;;2.13;0.80;;;17.50;99.90;;;;;;5096476;28;20503;-65
2022/02/18 12:07:26;;;;;;;4.07;1.40;;;17.90;99.90;;;;;;5096404;28;20456;-64
2022/02/18 12:10:04;;;;;;;2.97;1.30;;;18.10;99.90;;;;;;5081638;28;20835;-64
2022/02/18 12:12:34;;;;;;;3.87;1.23;;;18.10;99.90;;;;;;5096234;28;20513;-64
2022/02/18 12:15:14;;;;;;;2.80;1.00;;;18.10;99.90;;;;;;5096193;28;20493;-64
2022/02/18 12:17:43;;;;;;;3.10;0.97;;;18.00;99.90;;;;;;5096249;28;20986;-64
2022/02/18 12:20:12;;;;;;;3.27;1.40;;;18.60;99.90;;;;;;5095818;28;21081;-64
2022/02/18 12:22:40;;;;;;;4.73;1.10;;;18.80;99.90;;;;;;5096318;28;20457;-64
2022/02/18 12:25:08;;;;;;;4.20;1.77;;;18.50;99.90;;;;;;5095051;28;20450;-63
2022/02/18 12:27:38;;;;;;;5.00;1.23;;;18.50;99.90;;;;;;5095009;28;20525;-64
2022/02/18 12:30:45;;;;;;;3.50;1.20;;;18.30;99.90;;;;;;5092175;28;20532;-64
2022/02/18 12:33:12;;;;;;;4.67;1.97;;;18.20;99.90;;;;;;5083183;28;20932;-63
2022/02/18 12:35:40;;;;;;;3.80;0.97;;;18.00;99.90;;;;;;5093125;28;20959;-63
2022/02/18 12:38:09;;;;;;;5.33;1.13;;;17.80;99.90;;;;;;5094137;28;20446;-63
2022/02/18 12:40:39;;;;;;;5.90;1.10;;;17.60;99.90;;;;;;5087659;28;20497;-64
2022/02/18 12:43:14;;;;;;;3.30;1.07;;;17.50;99.90;;;;;;5087971;28;20470;-64
2022/02/18 12:46:03;;;;;;;3.30;0.80;;;17.50;99.90;;;;;;5087114;28;20442;-63
2022/02/18 12:48:31;;;;;;;3.43;0.90;;;17.40;99.90;;;;;;5091237;28;20541;-63
2022/02/18 12:51:00;;;;;;;3.93;1.33;;;17.20;99.90;;;;;;5093492;28;20446;-63